Time;durP1;ratioP1;P1;durP2;ratioP2;P2;SDS_P1;SDS_P2;PMS_P1;PMS_P2;Temp;Humidity;BMP_temperature;BMP_pressure;BME280_temperature;BME280_humidity;BME280_pressure;Samples;Min_cycle;Max_cycle;Signal;HPM_P1;HPM_P2
2021/12/04 00:01:11;;;;;;;13.07;10.57;;;5.20;87.00;;;;;;5094231;28;20052;-90
2021/12/04 00:03:40;;;;;;;14.40;10.68;;;5.20;87.00;;;;;;5092316;28;20047;-90
2021/12/04 00:06:15;;;;;;;13.27;11.43;;;5.20;87.00;;;;;;5095918;28;20048;-91
2021/12/04 00:08:45;;;;;;;13.35;11.23;;;5.20;87.00;;;;;;5088761;28;20463;-92
2021/12/04 00:11:13;;;;;;;13.65;11.55;;;5.20;87.00;;;;;;5086892;28;20104;-91
2021/12/04 00:13:40;;;;;;;13.32;10.82;;;5.30;87.00;;;;;;5074280;28;20048;-92
2021/12/04 00:16:07;;;;;;;12.95;10.95;;;5.20;87.00;;;;;;5075597;28;20044;-91
2021/12/04 00:18:34;;;;;;;13.05;10.90;;;5.20;87.00;;;;;;5089239;28;20044;-90
2021/12/04 00:21:01;;;;;;;13.68;11.57;;;5.20;87.00;;;;;;5082856;28;20420;-92
2021/12/04 00:23:28;;;;;;;13.70;11.00;;;5.20;87.00;;;;;;5067173;28;20517;-91
2021/12/04 00:25:57;;;;;;;14.85;11.75;;;5.20;87.00;;;;;;5054578;28;20106;-92
2021/12/04 00:28:24;;;;;;;12.50;10.88;;;5.20;87.00;;;;;;5087173;28;20052;-92
2021/12/04 00:30:52;;;;;;;13.95;12.02;;;5.20;87.00;;;;;;5078257;28;20127;-93
2021/12/04 00:33:22;;;;;;;13.20;11.48;;;5.30;87.00;;;;;;5090486;28;20052;-92
2021/12/04 00:35:58;;;;;;;12.70;11.00;;;5.30;87.00;;;;;;5083229;28;20056;-91
2021/12/04 00:49:19;;;;;;;15.80;12.27;;;5.30;87.00;;;;;;5074848;28;20511;-91
2021/12/04 00:51:53;;;;;;;16.88;13.10;;;5.30;87.00;;;;;;5075932;28;20060;-92
2021/12/04 00:54:24;;;;;;;15.30;12.23;;;5.20;87.00;;;;;;5090430;28;20106;-93
2021/12/04 00:56:51;;;;;;;14.80;12.60;;;5.20;87.00;;;;;;5097311;28;20052;-91
2021/12/04 00:59:19;;;;;;;14.45;11.95;;;5.30;87.00;;;;;;5098616;28;20129;-91
2021/12/04 01:01:46;;;;;;;14.60;11.85;;;5.30;87.00;;;;;;5096354;28;20058;-92
2021/12/04 01:04:17;;;;;;;15.13;12.15;;;5.30;87.00;;;;;;5078539;28;20054;-91
2021/12/04 01:06:44;;;;;;;15.60;12.73;;;5.30;87.00;;;;;;5077963;28;20359;-92
2021/12/04 01:09:13;;;;;;;17.60;12.90;;;5.30;87.00;;;;;;5077985;28;20056;-90
2021/12/04 01:11:41;;;;;;;16.55;13.18;;;5.30;87.00;;;;;;5067729;28;20049;-90
2021/12/04 01:14:10;;;;;;;15.90;12.73;;;5.30;87.00;;;;;;5063013;28;20056;-90
2021/12/04 01:16:37;;;;;;;15.70;12.50;;;5.30;87.00;;;;;;5078410;28;20101;-92
2021/12/04 01:19:04;;;;;;;15.73;12.18;;;5.30;87.00;;;;;;5095861;28;20079;-92
2021/12/04 01:21:31;;;;;;;15.40;12.32;;;5.30;87.00;;;;;;5081596;28;20049;-91
2021/12/04 01:23:59;;;;;;;15.43;12.27;;;5.30;87.00;;;;;;5064386;28;20053;-94
2021/12/04 01:26:26;;;;;;;15.55;12.00;;;5.30;87.00;;;;;;5065983;28;20044;-89
2021/12/04 01:28:53;;;;;;;16.10;12.80;;;5.30;87.00;;;;;;5098247;28;20052;-92
2021/12/04 01:31:20;;;;;;;16.55;12.68;;;5.30;87.00;;;;;;5082285;28;20045;-91
2021/12/04 01:33:47;;;;;;;17.83;12.52;;;5.30;87.00;;;;;;5077125;28;20055;-91
2021/12/04 01:36:14;;;;;;;16.77;12.30;;;5.30;87.00;;;;;;5062218;28;20498;-92
2021/12/04 01:38:41;;;;;;;17.42;12.65;;;5.30;87.00;;;;;;5056805;28;20109;-91
2021/12/04 01:41:09;;;;;;;15.52;13.05;;;5.30;87.00;;;;;;5061280;28;20048;-90
2021/12/04 01:43:36;;;;;;;17.08;12.27;;;5.20;87.00;;;;;;5076691;28;20048;-91
2021/12/04 01:46:03;;;;;;;16.23;12.63;;;5.30;87.00;;;;;;5077629;28;20049;-91
2021/12/04 01:48:30;;;;;;;17.25;12.68;;;5.30;87.00;;;;;;5077320;28;20135;-92
2021/12/04 01:50:58;;;;;;;16.63;12.70;;;5.30;87.00;;;;;;5065820;28;20525;-91
2021/12/04 01:53:25;;;;;;;17.45;13.25;;;5.20;87.00;;;;;;5063870;28;20048;-91
2021/12/04 01:55:54;;;;;;;18.55;13.48;;;5.20;87.00;;;;;;5092951;28;20052;-91
2021/12/04 01:58:23;;;;;;;16.83;13.00;;;5.30;87.00;;;;;;5056484;28;20114;-91
2021/12/04 02:00:52;;;;;;;19.25;13.38;;;5.30;87.00;;;;;;5076509;28;20106;-91
2021/12/04 02:03:20;;;;;;;16.10;12.93;;;5.30;87.00;;;;;;5076275;28;20052;-90
2021/12/04 02:05:48;;;;;;;17.92;12.93;;;5.30;87.00;;;;;;5076517;28;20079;-91
2021/12/04 02:08:21;;;;;;;16.85;13.75;;;5.30;87.00;;;;;;5078344;28;20052;-92
2021/12/04 02:10:51;;;;;;;17.98;13.80;;;5.20;87.00;;;;;;5096822;28;20473;-92
2021/12/04 02:13:18;;;;;;;17.92;13.07;;;5.30;87.00;;;;;;5097154;28;20056;-93
2021/12/04 02:15:48;;;;;;;16.75;12.85;;;5.20;87.00;;;;;;5075924;28;20051;-92
2021/12/04 02:18:17;;;;;;;17.88;13.38;;;5.20;87.00;;;;;;5061325;28;20099;-91
2021/12/04 02:20:44;;;;;;;17.45;13.23;;;5.30;87.00;;;;;;5070603;28;20052;-90
2021/12/04 02:23:12;;;;;;;18.42;13.88;;;5.30;87.00;;;;;;5096575;28;20055;-90
2021/12/04 02:25:40;;;;;;;17.17;13.75;;;5.30;87.00;;;;;;5076454;28;20056;-90
2021/12/04 02:28:10;;;;;;;18.80;13.52;;;5.30;87.00;;;;;;5056510;28;20052;-91
2021/12/04 02:30:39;;;;;;;18.02;12.77;;;5.30;87.00;;;;;;5056774;28;20107;-91
2021/12/04 02:33:12;;;;;;;20.58;14.07;;;5.30;87.00;;;;;;5056204;28;20052;-91
2021/12/04 02:35:47;;;;;;;18.20;13.35;;;5.20;87.00;;;;;;5071562;28;20067;-92
2021/12/04 02:38:15;;;;;;;17.50;13.55;;;5.30;87.00;;;;;;5082700;28;20065;-91
2021/12/04 02:40:44;;;;;;;17.95;13.30;;;5.20;87.00;;;;;;5058782;28;20041;-92
2021/12/04 02:43:12;;;;;;;18.40;13.77;;;5.30;87.00;;;;;;5075995;28;20052;-92
2021/12/04 02:45:39;;;;;;;19.30;13.38;;;5.20;87.00;;;;;;5075765;28;20113;-91
2021/12/04 02:48:06;;;;;;;18.17;12.80;;;5.20;87.00;;;;;;5076136;28;20052;-91
2021/12/04 02:50:33;;;;;;;18.55;13.60;;;5.20;87.00;;;;;;5074737;28;20403;-91
2021/12/04 02:53:00;;;;;;;16.55;11.77;;;5.20;87.00;;;;;;5075747;28;20406;-91
2021/12/04 02:55:27;;;;;;;17.60;12.63;;;5.20;87.00;;;;;;5079130;28;20052;-91
2021/12/04 02:57:55;;;;;;;20.20;13.95;;;5.20;87.00;;;;;;5075880;28;20051;-91
2021/12/04 03:00:24;;;;;;;18.42;13.57;;;5.20;87.00;;;;;;5075334;28;20540;-91
2021/12/04 03:02:52;;;;;;;18.63;13.10;;;5.20;87.00;;;;;;5082706;28;20512;-91
2021/12/04 03:05:24;;;;;;;16.67;12.07;;;5.20;87.00;;;;;;5091882;28;20048;-92
2021/12/04 03:07:51;;;;;;;17.48;12.63;;;5.20;87.00;;;;;;5095721;28;20060;-93
2021/12/04 03:10:19;;;;;;;19.20;12.80;;;5.20;87.00;;;;;;5095491;28;20059;-92
2021/12/04 03:12:46;;;;;;;18.42;13.55;;;5.20;87.00;;;;;;5056180;28;20045;-91
2021/12/04 03:15:14;;;;;;;18.80;12.68;;;5.20;87.00;;;;;;5054570;28;20465;-91
2021/12/04 03:17:41;;;;;;;18.42;12.90;;;5.20;87.00;;;;;;5065035;28;20094;-91
2021/12/04 03:20:10;;;;;;;18.98;12.70;;;5.20;87.00;;;;;;5075077;28;20048;-92
2021/12/04 03:22:40;;;;;;;21.70;12.98;;;5.20;87.00;;;;;;5074849;28;20044;-93
2021/12/04 03:25:08;;;;;;;18.45;12.20;;;5.20;87.00;;;;;;5074493;28;20060;-91
2021/12/04 03:27:35;;;;;;;19.98;13.00;;;5.20;87.00;;;;;;5089073;28;20044;-91
2021/12/04 03:30:07;;;;;;;19.02;12.57;;;5.20;87.00;;;;;;5095463;28;20062;-91
2021/12/04 03:32:57;;;;;;;20.10;13.13;;;5.20;87.00;;;;;;5089748;28;20420;-90
2021/12/04 03:40:52;;;;;;;23.70;13.57;;;5.20;87.10;;;;;;5073395;28;20051;-90
2021/12/04 03:43:19;;;;;;;24.17;13.30;;;5.20;87.10;;;;;;5094825;28;20056;-90
2021/12/04 03:45:52;;;;;;;24.33;13.88;;;5.20;87.10;;;;;;5075266;28;20040;-91
2021/12/04 03:51:04;;;;;;;25.85;13.95;;;5.20;87.10;;;;;;5070388;28;20049;-91
2021/12/04 03:53:31;;;;;;;27.63;14.70;;;5.20;87.10;;;;;;5055377;28;20052;-90
2021/12/04 03:55:58;;;;;;;26.60;14.65;;;5.20;87.20;;;;;;5059595;28;20052;-91
2021/12/04 03:58:24;;;;;;;24.13;14.48;;;5.20;87.20;;;;;;5074601;28;20052;-91
2021/12/04 04:00:52;;;;;;;24.08;14.63;;;5.20;87.20;;;;;;5075087;28;20409;-91
2021/12/04 04:03:20;;;;;;;30.73;15.65;;;5.30;87.20;;;;;;5075023;28;20072;-91
2021/12/04 04:05:47;;;;;;;27.48;14.90;;;5.30;87.20;;;;;;5063708;28;20049;-91
2021/12/04 04:08:15;;;;;;;26.85;15.27;;;5.30;87.20;;;;;;5054799;28;20049;-91
2021/12/04 04:10:43;;;;;;;25.75;14.80;;;5.30;87.20;;;;;;5054903;28;20059;-91
2021/12/04 04:13:12;;;;;;;27.95;15.55;;;5.30;87.20;;;;;;5054899;28;20513;-91
2021/12/04 04:15:40;;;;;;;26.05;14.48;;;5.30;87.20;;;;;;5082683;28;20044;-91
2021/12/04 04:18:08;;;;;;;26.52;15.13;;;5.30;87.20;;;;;;5086289;28;20107;-92
2021/12/04 04:20:35;;;;;;;28.45;15.05;;;5.30;87.20;;;;;;5085068;28;20049;-91
2021/12/04 04:23:02;;;;;;;26.60;15.00;;;5.40;87.20;;;;;;5072523;28;20080;-93
2021/12/04 04:25:29;;;;;;;28.27;16.13;;;5.40;87.20;;;;;;5074045;28;20106;-94
2021/12/04 04:27:56;;;;;;;27.05;14.15;;;5.40;87.20;;;;;;5082499;28;20044;-92
2021/12/04 04:30:23;;;;;;;24.25;13.85;;;5.40;87.20;;;;;;5066305;28;20045;-92
2021/12/04 04:32:51;;;;;;;30.10;15.05;;;5.40;87.20;;;;;;5072716;28;20044;-91
2021/12/04 04:35:21;;;;;;;28.02;14.93;;;5.40;87.20;;;;;;5095191;28;20040;-91
2021/12/04 05:13:15;;;;;;;30.05;14.25;;;5.40;87.20;;;;;;5035781;28;20057;-91
2021/12/04 05:15:56;;;;;;;33.65;14.85;;;5.40;87.20;;;;;;5045282;28;20044;-92
2021/12/04 05:21:04;;;;;;;34.57;15.10;;;5.40;87.20;;;;;;5043931;28;20045;-90
2021/12/04 05:23:40;;;;;;;32.05;14.95;;;5.40;87.20;;;;;;5072716;28;20052;-91
2021/12/04 05:26:11;;;;;;;42.45;15.95;;;5.40;87.20;;;;;;5088083;28;20048;-90
2021/12/04 05:28:38;;;;;;;32.58;14.80;;;5.40;87.20;;;;;;5057592;28;20049;-92
2021/12/04 05:31:05;;;;;;;34.60;15.90;;;5.40;87.20;;;;;;5056666;28;20041;-93
2021/12/04 05:33:32;;;;;;;35.05;15.40;;;5.40;87.20;;;;;;5075233;28;20052;-93
2021/12/04 05:35:59;;;;;;;32.70;14.70;;;5.40;87.20;;;;;;5090533;28;20404;-92
2021/12/04 05:38:26;;;;;;;52.90;15.95;;;5.40;87.20;;;;;;5088417;28;20101;-91
2021/12/04 05:40:54;;;;;;;35.28;15.05;;;5.40;87.20;;;;;;5056743;28;20056;-92
2021/12/04 05:43:22;;;;;;;31.48;14.95;;;5.40;87.20;;;;;;5056489;28;20056;-90
2021/12/04 05:45:59;;;;;;;31.85;14.50;;;5.40;87.20;;;;;;5056594;28;20090;-92
2021/12/04 05:48:40;;;;;;;35.05;15.07;;;5.40;87.20;;;;;;5057127;28;20048;-91
2021/12/04 05:51:31;;;;;;;33.55;15.20;;;5.40;87.10;;;;;;5057129;28;20091;-91
2021/12/04 05:54:04;;;;;;;30.80;14.70;;;5.40;87.20;;;;;;5056997;28;20435;-91
2021/12/04 05:56:33;;;;;;;30.80;14.80;;;5.40;87.10;;;;;;5066276;28;20524;-90
2021/12/04 05:59:00;;;;;;;29.15;13.73;;;5.40;87.10;;;;;;5096585;28;20055;-91
2021/12/04 06:01:29;;;;;;;33.20;14.68;;;5.40;87.10;;;;;;5097118;28;20051;-91
2021/12/04 06:03:56;;;;;;;31.67;13.85;;;5.40;87.10;;;;;;5089831;28;20052;-91
2021/12/04 06:06:23;;;;;;;32.63;14.45;;;5.40;87.10;;;;;;5096999;28;20584;-91
2021/12/04 06:08:50;;;;;;;28.40;13.65;;;5.40;87.10;;;;;;5096516;28;20455;-91
2021/12/04 06:11:17;;;;;;;30.90;13.55;;;5.40;87.10;;;;;;5092580;28;20070;-91
2021/12/04 06:13:44;;;;;;;32.60;14.95;;;5.40;87.10;;;;;;5095451;28;20121;-91
2021/12/04 06:16:11;;;;;;;28.40;12.40;;;5.40;87.10;;;;;;5076550;28;20394;-91
2021/12/04 06:18:41;;;;;;;32.40;13.50;;;5.40;87.10;;;;;;5074942;28;20044;-90
2021/12/04 06:23:53;;;;;;;26.77;13.00;;;5.40;87.10;;;;;;5064566;28;20048;-91
2021/12/04 06:26:20;;;;;;;28.92;13.98;;;5.40;87.10;;;;;;5062518;28;20056;-92
2021/12/04 06:28:47;;;;;;;29.15;12.68;;;5.40;87.10;;;;;;5076217;28;20056;-93
2021/12/04 06:31:14;;;;;;;26.75;11.93;;;5.40;87.10;;;;;;5076020;28;20048;-92
2021/12/04 06:33:42;;;;;;;29.98;13.30;;;5.40;87.10;;;;;;5074501;28;20083;-92
2021/12/04 06:36:09;;;;;;;28.23;12.90;;;5.40;87.10;;;;;;5063289;28;20053;-93
2021/12/04 06:38:36;;;;;;;24.83;11.57;;;5.40;87.10;;;;;;5059064;28;20048;-91
2021/12/04 06:41:05;;;;;;;27.88;13.13;;;5.40;87.10;;;;;;5091572;28;20064;-91
2021/12/04 06:43:32;;;;;;;26.33;11.85;;;5.40;87.10;;;;;;5075614;28;20078;-91
2021/12/04 06:46:01;;;;;;;28.23;11.48;;;5.30;87.10;;;;;;5087749;28;20105;-90
2021/12/04 06:48:38;;;;;;;32.03;11.65;;;5.40;87.10;;;;;;5087442;28;20048;-92
2021/12/04 06:51:25;;;;;;;26.48;11.93;;;5.30;87.10;;;;;;5095713;28;20052;-91
2021/12/04 06:56:34;;;;;;;25.88;11.02;;;5.30;87.20;;;;;;5079815;28;20048;-91
2021/12/04 06:59:08;;;;;;;30.10;12.10;;;5.40;87.20;;;;;;5095332;28;20043;-91
2021/12/04 07:01:36;;;;;;;27.58;11.73;;;5.30;87.10;;;;;;5095800;28;20054;-91
2021/12/04 07:04:04;;;;;;;28.73;12.18;;;5.30;87.20;;;;;;5095612;28;20051;-90
2021/12/04 07:06:31;;;;;;;34.35;11.55;;;5.30;87.20;;;;;;5095708;28;20055;-91
2021/12/04 07:08:58;;;;;;;29.48;12.50;;;5.30;87.20;;;;;;5094605;28;20048;-93
2021/12/04 07:11:27;;;;;;;29.90;12.23;;;5.30;87.20;;;;;;5078241;28;20045;-92
2021/12/04 07:13:54;;;;;;;25.75;11.32;;;5.30;87.20;;;;;;5058990;28;20052;-92
2021/12/04 07:16:23;;;;;;;25.65;11.63;;;5.30;87.20;;;;;;5055220;28;20124;-91
2021/12/04 07:18:51;;;;;;;35.72;11.77;;;5.30;87.20;;;;;;5055353;28;20102;-92
2021/12/04 07:21:19;;;;;;;29.17;11.35;;;5.30;87.20;;;;;;5054577;28;20044;-92
2021/12/04 07:23:46;;;;;;;26.23;11.73;;;5.30;87.20;;;;;;5055070;28;20083;-93
2021/12/04 07:26:13;;;;;;;25.30;10.80;;;5.30;87.20;;;;;;5053988;28;20048;-92
2021/12/04 07:28:40;;;;;;;27.42;11.70;;;5.30;87.20;;;;;;5053751;28;20091;-93
2021/12/04 07:31:08;;;;;;;26.83;11.40;;;5.30;87.20;;;;;;5077285;28;20049;-92
2021/12/04 07:33:36;;;;;;;25.90;10.07;;;5.40;87.30;;;;;;5074737;28;20040;-92
2021/12/04 07:36:04;;;;;;;24.40;10.85;;;5.30;87.20;;;;;;5083967;28;20055;-92
2021/12/04 07:38:31;;;;;;;27.75;11.65;;;5.30;87.30;;;;;;5095011;28;20044;-91
2021/12/04 07:41:00;;;;;;;23.60;10.05;;;5.30;87.30;;;;;;5086200;28;20049;-91
2021/12/04 07:43:27;;;;;;;27.10;11.02;;;5.30;87.30;;;;;;5054500;28;20460;-91
2021/12/04 07:45:56;;;;;;;27.85;11.25;;;5.40;87.30;;;;;;5054636;28;20052;-91
2021/12/04 07:48:23;;;;;;;26.27;10.70;;;5.40;87.30;;;;;;5070162;28;20135;-91
2021/12/04 07:50:50;;;;;;;25.30;11.10;;;5.40;87.30;;;;;;5095427;28;20055;-89
2021/12/04 07:53:17;;;;;;;26.95;10.18;;;5.30;87.30;;;;;;5087660;28;20044;-92
2021/12/04 07:55:44;;;;;;;24.25;10.05;;;5.30;87.30;;;;;;5074965;28;20053;-92
2021/12/04 07:58:12;;;;;;;27.13;9.52;;;5.40;87.30;;;;;;5074927;28;20048;-91
2021/12/04 08:00:40;;;;;;;26.77;10.70;;;5.40;87.30;;;;;;5094680;28;20105;-92
2021/12/04 08:03:07;;;;;;;25.23;10.10;;;5.40;87.30;;;;;;5099392;28;20435;-92
2021/12/04 08:05:41;;;;;;;24.45;10.45;;;5.40;87.30;;;;;;5078195;28;20121;-92
2021/12/04 08:08:08;;;;;;;24.48;10.75;;;5.30;87.30;;;;;;5075455;28;20117;-90
2021/12/04 08:10:35;;;;;;;24.48;9.75;;;5.30;87.30;;;;;;5092732;28;20117;-91
2021/12/04 08:13:03;;;;;;;28.33;10.80;;;5.40;87.30;;;;;;5059897;28;20049;-93
2021/12/04 08:15:32;;;;;;;23.48;10.27;;;5.40;87.30;;;;;;5079927;28;20048;-91
2021/12/04 08:17:59;;;;;;;24.38;10.98;;;5.40;87.30;;;;;;5100537;28;20052;-92
2021/12/04 08:20:27;;;;;;;23.02;10.02;;;5.40;87.30;;;;;;5100535;28;20085;-92
2021/12/04 08:22:54;;;;;;;24.67;10.00;;;5.40;87.30;;;;;;5063682;28;20078;-92
2021/12/04 08:25:22;;;;;;;22.67;9.88;;;5.40;87.30;;;;;;5081364;28;20044;-93
2021/12/04 08:27:49;;;;;;;24.23;9.75;;;5.40;87.30;;;;;;5083264;28;20524;-92
2021/12/04 08:30:20;;;;;;;23.40;9.45;;;5.40;87.30;;;;;;5066696;28;20063;-91
2021/12/04 08:32:49;;;;;;;22.27;9.73;;;5.40;87.30;;;;;;5062842;28;20490;-92
2021/12/04 08:35:18;;;;;;;21.00;9.65;;;5.40;87.30;;;;;;5064306;28;20044;-92
2021/12/04 08:37:46;;;;;;;20.23;9.50;;;5.40;87.30;;;;;;5099877;28;20048;-92
2021/12/04 08:40:15;;;;;;;22.05;9.68;;;5.40;87.30;;;;;;5101578;28;20051;-92
2021/12/04 08:42:46;;;;;;;20.33;8.75;;;5.40;87.30;;;;;;5082577;28;20052;-91
2021/12/04 08:45:15;;;;;;;21.73;9.45;;;5.40;87.30;;;;;;5077734;28;20052;-92
2021/12/04 08:47:42;;;;;;;17.58;7.88;;;5.40;87.30;;;;;;5079827;28;20509;-91
2021/12/04 08:50:13;;;;;;;20.75;9.02;;;5.40;87.40;;;;;;5065786;28;20044;-93
2021/12/04 08:52:42;;;;;;;21.25;8.90;;;5.40;87.40;;;;;;5081354;28;20049;-91
2021/12/04 08:55:10;;;;;;;21.08;9.48;;;5.40;87.40;;;;;;5062153;28;20056;-94
2021/12/04 08:57:38;;;;;;;21.65;9.25;;;5.40;87.40;;;;;;5089593;28;20058;-94
2021/12/04 09:00:10;;;;;;;22.75;9.65;;;5.40;87.30;;;;;;5076984;28;20060;-94
2021/12/04 09:02:38;;;;;;;20.38;8.90;;;5.40;87.30;;;;;;5071141;28;20044;-93
2021/12/04 09:05:08;;;;;;;17.00;8.25;;;5.40;87.40;;;;;;5081634;28;20051;-95
2021/12/04 09:07:36;;;;;;;20.60;9.20;;;5.40;87.40;;;;;;5082627;28;20056;-94
2021/12/04 09:10:04;;;;;;;17.55;8.07;;;5.40;87.40;;;;;;5082301;28;20055;-94
2021/12/04 09:12:33;;;;;;;17.60;8.45;;;5.40;87.40;;;;;;5088932;28;20048;-93
2021/12/04 09:15:03;;;;;;;19.00;9.18;;;5.40;87.40;;;;;;5090871;28;20083;-93
2021/12/04 09:17:30;;;;;;;17.40;8.15;;;5.40;87.40;;;;;;5083698;28;20495;-92
2021/12/04 09:19:57;;;;;;;16.30;7.78;;;5.50;87.40;;;;;;5082010;28;20102;-92
2021/12/04 09:22:27;;;;;;;18.35;8.02;;;5.40;87.40;;;;;;5103997;28;20052;-93
2021/12/04 09:25:05;;;;;;;16.60;7.88;;;5.40;87.40;;;;;;5084899;28;20057;-93
2021/12/04 09:36:47;;;;;;;15.15;7.35;;;5.50;87.40;;;;;;5076693;28;20442;-93
2021/12/04 10:12:37;;;;;;;8.70;3.75;;;5.60;87.50;;;;;;5038781;28;20046;-92
2021/12/04 10:34:37;;;;;;;5.35;2.50;;;5.60;87.40;;;;;;5078842;28;20072;-92
2021/12/04 10:37:06;;;;;;;7.03;2.30;;;5.60;87.40;;;;;;5091424;28;20056;-92
2021/12/04 10:39:34;;;;;;;6.15;2.40;;;5.60;87.40;;;;;;5098798;28;20051;-90
2021/12/04 10:42:04;;;;;;;7.47;2.10;;;5.60;87.40;;;;;;5084625;28;20455;-92
2021/12/04 10:44:32;;;;;;;4.95;2.28;;;5.60;87.40;;;;;;5077800;28;20052;-93
2021/12/04 10:47:11;;;;;;;6.20;2.10;;;5.60;87.40;;;;;;5073375;28;20101;-91
2021/12/04 10:55:32;;;;;;;5.18;2.00;;;5.70;87.50;;;;;;5056434;28;20073;-91
2021/12/04 11:06:45;;;;;;;3.92;1.50;;;5.70;87.50;;;;;;5076295;28;20051;-91
2021/12/04 11:39:57;;;;;;;2.72;1.20;;;6.10;87.80;;;;;;5059334;28;20464;-93
2021/12/04 11:42:44;;;;;;;5.88;1.35;;;6.10;87.80;;;;;;5057701;28;20067;-91
2021/12/04 11:45:19;;;;;;;2.80;1.13;;;6.20;87.80;;;;;;5056123;28;20057;-91
2021/12/04 11:47:56;;;;;;;3.60;1.35;;;6.20;87.80;;;;;;5067783;28;20051;-91
2021/12/04 11:50:33;;;;;;;3.45;1.30;;;6.20;87.70;;;;;;5075200;28;20048;-91
2021/12/04 11:53:03;;;;;;;3.38;1.20;;;6.20;87.70;;;;;;5076198;28;20493;-90
2021/12/04 11:55:36;;;;;;;3.85;1.42;;;6.30;87.70;;;;;;5076271;28;20052;-91
2021/12/04 11:58:15;;;;;;;6.85;1.67;;;6.40;87.80;;;;;;5089402;28;20464;-91
2021/12/04 12:00:43;;;;;;;3.60;1.30;;;6.40;87.80;;;;;;5090953;28;20044;-91
2021/12/04 12:03:17;;;;;;;2.42;1.23;;;6.40;87.80;;;;;;5078837;28;20044;-89
2021/12/04 12:05:58;;;;;;;5.90;1.35;;;6.40;87.80;;;;;;5080223;28;20082;-90
2021/12/04 12:08:30;;;;;;;3.45;1.40;;;6.50;87.80;;;;;;5096175;28;20062;-92
2021/12/04 12:11:07;;;;;;;3.72;1.20;;;6.50;87.90;;;;;;5055188;28;20091;-90
2021/12/04 12:13:48;;;;;;;3.13;1.13;;;6.60;87.80;;;;;;5055620;28;20417;-90
2021/12/04 12:16:15;;;;;;;3.75;1.45;;;6.70;87.80;;;;;;5093183;28;20051;-90
2021/12/04 12:18:54;;;;;;;5.57;1.38;;;6.70;87.80;;;;;;5074989;28;20558;-90
2021/12/04 12:21:28;;;;;;;4.70;1.30;;;6.70;87.80;;;;;;5074241;28;20044;-91
2021/12/04 12:33:13;;;;;;;8.52;1.52;;;7.00;87.80;;;;;;5092326;28;20044;-90
2021/12/04 12:36:08;;;;;;;4.47;1.70;;;7.10;87.80;;;;;;5079846;28;20052;-90
2021/12/04 12:38:38;;;;;;;;;;;7.20;87.80;;;;;;5090523;28;20496;-91
2021/12/04 12:41:15;;;;;;;7.95;2.28;;;7.20;87.80;;;;;;5088758;28;20412;-92
2021/12/04 12:43:53;;;;;;;8.80;1.90;;;7.20;87.80;;;;;;5073308;28;20082;-90
2021/12/04 12:46:31;;;;;;;6.75;2.30;;;7.30;87.70;;;;;;5093281;28;20044;-91
2021/12/04 12:48:58;;;;;;;5.38;1.83;;;7.40;87.70;;;;;;5056385;28;20497;-91
2021/12/04 12:51:32;;;;;;;9.68;2.00;;;7.40;87.70;;;;;;5058049;28;20049;-92
2021/12/04 12:54:04;;;;;;;6.68;1.83;;;7.40;87.60;;;;;;5059265;28;20041;-91
2021/12/04 12:56:34;;;;;;;6.93;1.73;;;7.50;87.50;;;;;;5059565;28;20053;-90
2021/12/04 12:59:19;;;;;;;6.38;1.80;;;7.50;87.40;;;;;;5058021;28;20048;-89
2021/12/04 13:13:34;;;;;;;9.10;1.92;;;7.60;86.40;;;;;;5056970;28;20049;-91
2021/12/04 13:16:16;;;;;;;8.85;1.98;;;7.50;86.10;;;;;;5057664;28;20106;-90
2021/12/04 13:18:53;;;;;;;10.23;2.00;;;7.60;86.00;;;;;;5090807;28;20052;-90
2021/12/04 13:21:20;;;;;;;8.35;1.83;;;7.50;85.70;;;;;;5097428;28;20109;-91
2021/12/04 13:23:53;;;;;;;9.13;1.67;;;7.50;85.50;;;;;;5085035;28;20040;-91
2021/12/04 13:26:34;;;;;;;6.50;1.70;;;7.50;85.30;;;;;;5076727;28;20135;-91
2021/12/04 13:29:04;;;;;;;9.65;1.83;;;7.40;85.10;;;;;;5074401;28;20040;-92
2021/12/04 13:31:33;;;;;;;6.45;1.77;;;7.40;85.00;;;;;;5076540;28;20075;-89
2021/12/04 13:34:00;;;;;;;15.25;2.90;;;7.30;84.90;;;;;;5056168;28;20044;-90
2021/12/04 13:36:30;;;;;;;11.52;2.10;;;7.30;84.90;;;;;;5056156;28;20122;-91
2021/12/04 13:39:09;;;;;;;13.88;2.42;;;7.20;84.80;;;;;;5067721;28;20094;-91
2021/12/04 13:41:38;;;;;;;8.90;1.85;;;7.20;84.60;;;;;;5076455;28;20067;-91
2021/12/04 13:44:09;;;;;;;13.52;2.45;;;7.10;84.50;;;;;;5071263;28;20052;-90
2021/12/04 13:47:01;;;;;;;9.80;2.22;;;7.10;84.40;;;;;;5056515;28;20057;-91
2021/12/04 13:49:33;;;;;;;8.80;2.30;;;7.00;84.30;;;;;;5056107;28;20099;-91
2021/12/04 13:52:12;;;;;;;15.70;2.33;;;7.00;84.20;;;;;;5076821;28;20109;-91
2021/12/04 13:54:51;;;;;;;13.85;2.40;;;7.00;84.20;;;;;;5077776;28;20048;-92
2021/12/04 13:57:18;;;;;;;9.13;2.15;;;6.90;84.20;;;;;;5077287;28;20505;-89
2021/12/04 13:59:45;;;;;;;9.68;2.10;;;6.90;84.10;;;;;;5077893;28;20040;-91
2021/12/04 14:02:24;;;;;;;14.98;2.08;;;6.90;84.10;;;;;;5075321;28;20123;-89
2021/12/04 14:05:16;;;;;;;9.70;1.83;;;6.90;84.10;;;;;;5071777;28;20720;-90
2021/12/04 14:08:06;;;;;;;11.50;2.42;;;6.90;84.10;;;;;;5103041;28;20409;-90
2021/12/04 14:10:41;;;;;;;12.50;2.25;;;6.80;84.10;;;;;;5087558;28;20130;-90
2021/12/04 14:13:10;;;;;;;6.68;1.60;;;6.80;84.10;;;;;;5088522;28;20040;-92
2021/12/04 14:15:41;;;;;;;12.95;2.45;;;6.80;84.10;;;;;;5079304;28;20536;-90
2021/12/04 14:18:11;;;;;;;18.63;2.80;;;6.80;84.10;;;;;;5077155;28;20072;-90
2021/12/04 14:20:41;;;;;;;9.90;1.98;;;6.80;84.10;;;;;;5076085;28;20059;-90
2021/12/04 14:23:08;;;;;;;15.20;2.95;;;6.80;84.10;;;;;;5073218;28;20478;-90
2021/12/04 14:25:42;;;;;;;12.32;2.05;;;6.80;84.00;;;;;;5075753;28;20045;-89
2021/12/04 14:28:18;;;;;;;;;;;6.70;83.90;;;;;;5076622;28;20052;-91
2021/12/04 14:30:47;;;;;;;17.80;2.03;;;6.70;83.90;;;;;;5076945;28;20454;-91
2021/12/04 14:33:19;;;;;;;14.98;2.50;;;6.80;83.80;;;;;;5077353;28;20040;-90
2021/12/04 14:35:49;;;;;;;16.60;2.45;;;6.70;83.70;;;;;;5076071;28;20048;-90
2021/12/04 14:38:20;;;;;;;13.90;2.63;;;6.70;83.60;;;;;;5089002;28;20052;-92
2021/12/04 14:41:08;;;;;;;12.63;2.40;;;6.70;83.50;;;;;;5075251;28;20052;-92
2021/12/04 14:43:38;;;;;;;15.43;2.30;;;6.70;83.30;;;;;;5055682;28;20091;-91
2021/12/04 14:46:10;;;;;;;14.82;2.60;;;6.70;83.20;;;;;;5077090;28;20060;-90
2021/12/04 14:48:44;;;;;;;14.48;2.25;;;6.70;83.00;;;;;;5087038;28;20139;-89
2021/12/04 14:51:18;;;;;;;15.38;2.30;;;6.70;82.90;;;;;;5083687;28;20114;-91
2021/12/04 14:53:53;;;;;;;14.88;3.78;;;6.70;82.70;;;;;;5076612;28;20048;-90
2021/12/04 14:56:22;;;;;;;12.68;2.15;;;6.70;82.60;;;;;;5075350;28;20043;-90
2021/12/04 14:58:50;;;;;;;10.40;2.10;;;6.60;82.50;;;;;;5072685;28;20101;-90
2021/12/04 15:01:19;;;;;;;15.43;2.85;;;6.60;82.50;;;;;;5078285;28;20135;-91
2021/12/04 15:03:56;;;;;;;7.22;2.00;;;6.70;82.40;;;;;;5074066;28;20531;-92
2021/12/04 15:06:27;;;;;;;13.43;1.80;;;6.70;82.40;;;;;;5076426;28;20479;-90
2021/12/04 15:08:59;;;;;;;9.95;1.85;;;6.60;82.40;;;;;;5074768;28;20097;-90
2021/12/04 15:11:31;;;;;;;9.77;1.75;;;6.60;82.40;;;;;;5074930;28;20097;-91
2021/12/04 15:14:02;;;;;;;10.68;1.90;;;6.60;82.30;;;;;;5054736;28;20048;-90
2021/12/04 15:19:19;;;;;;;15.70;2.17;;;6.50;82.20;;;;;;5075997;28;20051;-91
2021/12/04 15:21:56;;;;;;;13.68;2.30;;;6.50;82.20;;;;;;5073724;28;20045;-90
2021/12/04 15:24:28;;;;;;;13.57;2.60;;;6.50;82.20;;;;;;5075476;28;20048;-91
2021/12/04 15:26:58;;;;;;;12.18;2.15;;;6.50;82.20;;;;;;5076777;28;20049;-89
2021/12/04 15:29:28;;;;;;;14.95;1.90;;;6.50;82.10;;;;;;5074004;28;20487;-91
2021/12/04 15:31:58;;;;;;;19.63;2.38;;;6.50;82.10;;;;;;5053605;28;20092;-91
2021/12/04 15:34:41;;;;;;;13.85;2.22;;;6.40;82.10;;;;;;5085627;28;20051;-90
2021/12/04 15:37:09;;;;;;;15.75;2.42;;;6.40;82.10;;;;;;5078841;28;20097;-91
2021/12/04 15:39:40;;;;;;;10.80;1.98;;;6.40;82.00;;;;;;5077317;28;20055;-90
2021/12/04 15:47:21;;;;;;;13.80;2.13;;;6.40;81.90;;;;;;5072182;28;20045;-92
2021/12/04 15:55:24;;;;;;;14.80;2.28;;;6.30;81.90;;;;;;5077512;28;20048;-90
2021/12/04 15:58:00;;;;;;;13.20;2.25;;;6.20;81.90;;;;;;5073219;28;20619;-90
2021/12/04 16:00:31;;;;;;;15.00;2.78;;;6.20;82.00;;;;;;5075782;28;20453;-91
2021/12/04 16:03:01;;;;;;;14.05;2.00;;;6.20;82.00;;;;;;5074215;28;20461;-91
2021/12/04 16:05:32;;;;;;;14.52;2.33;;;6.20;82.10;;;;;;5075917;28;20051;-92
2021/12/04 16:08:13;;;;;;;9.68;2.15;;;6.10;82.10;;;;;;5056041;28;20056;-91
2021/12/04 16:10:43;;;;;;;12.65;2.28;;;6.10;82.10;;;;;;5073944;28;20044;-90
2021/12/04 16:13:14;;;;;;;12.85;2.10;;;6.10;82.10;;;;;;5075954;28;20416;-90
2021/12/04 16:15:42;;;;;;;13.68;2.45;;;6.00;82.10;;;;;;5075717;28;20049;-90
2021/12/04 16:18:09;;;;;;;11.75;1.92;;;6.00;82.10;;;;;;5075921;28;20511;-89
2021/12/04 16:20:37;;;;;;;15.90;2.20;;;6.00;82.10;;;;;;5072532;28;20045;-91
2021/12/04 16:23:04;;;;;;;14.48;2.30;;;6.00;82.10;;;;;;5089598;28;20316;-91